createdAt,value
2019-04-23T00:04:24.006Z,55.20
2019-04-23T00:09:36.847Z,55.80
2019-04-23T00:14:52.049Z,55.70
2019-04-23T00:19:47.190Z,53.00
2019-04-23T00:30:18.706Z,55.50
2019-04-23T00:35:12.463Z,55.60
2019-04-23T00:40:25.843Z,55.60
2019-04-23T00:45:41.494Z,56.90
2019-04-23T00:50:52.197Z,56.40
2019-04-23T01:01:00.360Z,55.60
2019-04-23T01:06:18.516Z,54.80
2019-04-23T01:11:21.076Z,56.70
2019-04-23T01:16:14.979Z,56.10
2019-04-23T01:21:13.708Z,56.00
2019-04-23T01:26:42.124Z,57.80
2019-04-23T01:31:57.427Z,56.90
2019-04-23T01:36:58.974Z,58.20
2019-04-23T01:42:22.502Z,58.40
2019-04-23T01:47:18.618Z,59.20
2019-04-23T01:52:38.042Z,58.80
2019-04-23T01:57:47.205Z,61.20
2019-04-23T02:02:55.919Z,64.50
2019-04-23T02:07:56.966Z,60.90
2019-04-23T02:18:11.490Z,62.00
2019-04-23T02:23:26.576Z,62.30
2019-04-23T02:28:33.017Z,63.50
2019-04-23T02:44:15.240Z,67.20
2019-04-23T02:54:31.352Z,70.10
2019-04-23T02:59:44.605Z,72.00
2019-04-23T03:09:45.567Z,71.40
2019-04-23T03:15:00.864Z,74.90
2019-04-23T03:25:30.975Z,74.50
2019-04-23T03:41:07.068Z,82.30
2019-04-23T03:51:28.916Z,83.80
2019-04-23T03:56:44.776Z,85.50
2019-04-23T04:01:34.752Z,88.80
2019-04-23T04:12:13.951Z,88.40
2019-04-23T04:17:17.872Z,84.30
2019-04-23T04:22:38.057Z,86.00
2019-04-23T04:27:36.530Z,85.80
2019-04-23T04:32:42.361Z,87.00
2019-04-23T04:38:05.777Z,87.10
2019-04-23T04:48:19.969Z,88.50
2019-04-23T04:53:29.647Z,87.40
2019-04-23T04:58:31.736Z,87.40
2019-04-23T05:03:29.557Z,89.20
2019-04-23T05:13:59.771Z,90.80
2019-04-23T05:19:23.494Z,90.00
2019-04-23T05:24:14.936Z,90.10
2019-04-23T05:29:15.248Z,88.40
2019-04-23T05:34:27.453Z,90.00
2019-04-23T05:39:38.088Z,92.20
2019-04-23T05:44:47.959Z,92.00
2019-04-23T05:49:54.604Z,92.70
2019-04-23T05:55:13.276Z,90.60
2019-04-23T06:00:21.304Z,90.10
2019-04-23T06:05:25.065Z,90.90
2019-04-23T06:10:30.559Z,89.70
2019-04-23T06:15:31.740Z,89.70
2019-04-23T06:20:48.800Z,90.10
2019-04-23T06:31:02.283Z,87.60
2019-04-23T06:36:16.956Z,86.50
2019-04-23T06:41:21.338Z,86.50
2019-04-23T06:46:32.364Z,86.70
2019-04-23T06:51:46.495Z,89.00
2019-04-23T06:56:52.496Z,89.80
2019-04-23T07:01:57.999Z,89.80
2019-04-23T07:07:13.515Z,89.20
2019-04-23T07:11:54.103Z,86.50
2019-04-23T07:17:04.920Z,84.60
2019-04-23T07:22:16.128Z,84.50
2019-04-23T07:27:25.763Z,84.30
2019-04-23T07:32:35.952Z,82.70
2019-04-23T07:37:57.126Z,82.80
2019-04-23T07:43:11.653Z,80.90
2019-04-23T07:48:29.234Z,79.90
2019-04-23T07:53:53.593Z,80.50
2019-04-23T07:58:40.086Z,80.70
2019-04-23T08:03:51.221Z,81.40
2019-04-23T08:14:02.092Z,75.90
2019-04-23T08:19:07.751Z,75.90
2019-04-23T08:24:38.024Z,74.80
2019-04-23T08:29:36.312Z,73.50
2019-04-23T08:34:58.501Z,75.20
2019-04-23T08:40:07.851Z,73.90
2019-04-23T08:45:29.654Z,73.80
2019-04-23T08:50:50.719Z,72.50
2019-04-23T08:55:55.018Z,72.50
2019-04-23T09:00:58.895Z,72.30
2019-04-23T09:06:08.040Z,72.00
2019-04-23T09:11:30.131Z,70.50
2019-04-23T09:16:30.408Z,70.60
2019-04-23T09:21:37.404Z,67.70
2019-04-23T09:26:40.566Z,68.60
2019-04-23T09:32:15.087Z,66.00
2019-04-23T09:42:49.724Z,64.10
2019-04-23T09:47:57.278Z,62.90
2019-04-23T09:58:08.313Z,60.00
2019-04-23T10:03:05.084Z,58.70
2019-04-23T10:08:25.416Z,58.10
2019-04-23T10:13:26.133Z,59.10
2019-04-23T10:18:33.194Z,57.70
2019-04-23T10:23:41.270Z,55.10
2019-04-23T10:28:53.972Z,52.10
2019-04-23T10:34:02.194Z,50.80
2019-04-23T10:39:15.590Z,50.70
2019-04-23T10:44:21.355Z,49.50
2019-04-23T10:50:01.085Z,45.50
2019-04-23T10:55:08.563Z,47.50
2019-04-23T11:00:10.330Z,45.80
2019-04-23T11:05:29.103Z,46.00
2019-04-23T11:25:48.653Z,40.70
2019-04-23T11:30:56.779Z,41.20
2019-04-23T11:41:25.121Z,43.20
2019-04-23T11:46:39.832Z,43.20
2019-04-23T11:51:51.362Z,42.60
2019-04-23T12:02:07.171Z,40.10
2019-04-23T12:07:34.034Z,40.50
2019-04-23T12:12:39.893Z,38.40
2019-04-23T12:17:52.410Z,37.50
2019-04-23T12:23:04.606Z,39.40
2019-04-23T12:28:01.731Z,40.80
2019-04-23T12:33:21.745Z,39.70
2019-04-23T12:38:25.502Z,38.80
2019-04-23T12:43:28.773Z,41.00
2019-04-23T12:49:01.302Z,41.10
2019-04-23T12:53:56.324Z,42.10
2019-04-23T12:59:04.140Z,42.20
2019-04-23T13:04:20.071Z,41.40
2019-04-23T13:09:42.178Z,41.00
2019-04-23T13:14:42.066Z,40.80
2019-04-23T13:19:51.389Z,41.10
2019-04-23T13:24:56.017Z,40.40
2019-04-23T13:35:25.791Z,41.30
2019-04-23T13:40:22.793Z,40.30
2019-04-23T13:55:42.975Z,38.70
2019-04-23T14:01:01.347Z,37.80
2019-04-23T14:06:10.789Z,37.00
2019-04-23T14:11:20.983Z,36.30
2019-04-23T14:16:23.127Z,36.20
2019-04-23T14:21:24.855Z,34.90
2019-04-23T14:26:38.416Z,34.90
2019-04-23T14:31:44.671Z,34.20
2019-04-23T14:36:55.754Z,34.20
2019-04-23T14:41:53.924Z,33.70
2019-04-23T14:47:09.154Z,34.10
2019-04-23T14:52:16.895Z,34.30
2019-04-23T15:02:27.090Z,34.50
2019-04-23T15:12:38.583Z,34.10
2019-04-23T15:17:50.444Z,34.10
2019-04-23T15:23:13.763Z,33.90
2019-04-23T15:28:06.563Z,34.00
2019-04-23T15:33:37.023Z,32.80
2019-04-23T15:43:46.776Z,32.60
2019-04-23T15:49:14.740Z,32.80
2019-04-23T16:03:51.341Z,33.60
2019-04-23T16:09:16.305Z,34.10
2019-04-23T16:14:31.216Z,33.30
2019-04-23T16:19:43.964Z,35.00
2019-04-23T16:25:00.881Z,36.50
2019-04-23T16:30:10.455Z,37.20
2019-04-23T16:35:19.371Z,35.50
2019-04-23T16:45:31.853Z,34.60
2019-04-23T16:50:41.328Z,35.30
2019-04-23T16:55:49.935Z,36.40
2019-04-23T17:01:00.502Z,39.90
2019-04-23T17:06:04.019Z,38.80
2019-04-23T17:11:15.128Z,38.80
2019-04-23T17:21:24.076Z,41.60
2019-04-23T17:26:32.203Z,40.40
2019-04-23T17:31:41.569Z,38.60
2019-04-23T17:47:25.101Z,37.10
2019-04-23T17:52:28.981Z,37.60
2019-04-23T18:02:55.105Z,39.10
2019-04-23T18:18:19.778Z,39.70
2019-04-23T18:23:22.664Z,39.90
2019-04-23T18:28:31.722Z,40.20
2019-04-23T18:43:56.413Z,39.50
2019-04-23T18:49:20.154Z,39.70
2019-04-23T18:54:14.939Z,39.80
2019-04-23T18:59:30.372Z,39.80
2019-04-23T19:05:07.274Z,40.20
2019-04-23T19:10:10.756Z,40.30
2019-04-23T19:15:09.362Z,39.60
2019-04-23T19:20:19.243Z,39.60
2019-04-23T19:25:23.083Z,39.40
2019-04-23T19:30:41.498Z,39.70
2019-04-23T19:36:09.768Z,39.80
2019-04-23T19:40:56.671Z,39.90
2019-04-23T19:46:00.878Z,40.30
2019-04-23T19:51:08.910Z,40.60
2019-04-23T20:06:58.515Z,42.50
2019-04-23T20:17:17.596Z,43.20
2019-04-23T20:37:25.763Z,45.30
2019-04-23T20:42:27.187Z,46.10
2019-04-23T20:47:37.200Z,46.30
2019-04-23T20:52:41.143Z,46.20
2019-04-23T20:58:21.294Z,46.80
2019-04-23T21:09:11.686Z,47.90
2019-04-23T21:19:05.649Z,48.40
2019-04-23T21:24:05.771Z,50.30
2019-04-23T21:29:26.548Z,52.30
2019-04-23T21:34:28.103Z,51.80
2019-04-23T21:40:32.538Z,52.20
2019-04-23T21:44:59.238Z,53.40
2019-04-23T21:55:20.774Z,54.20
2019-04-23T22:00:24.416Z,56.10
2019-04-23T22:05:36.527Z,58.00
2019-04-23T22:11:12.063Z,59.00
2019-04-23T22:16:10.522Z,59.40
2019-04-23T22:21:05.110Z,60.50
2019-04-23T22:41:25.824Z,67.10
2019-04-23T22:46:51.122Z,70.10
2019-04-23T22:51:49.211Z,72.10
2019-04-23T22:56:51.860Z,72.00
2019-04-23T23:02:25.291Z,70.70
2019-04-23T23:07:02.985Z,74.30
2019-04-23T23:12:05.276Z,72.30
2019-04-23T23:17:11.510Z,72.40
2019-04-23T23:22:11.233Z,71.80
2019-04-23T23:27:15.525Z,72.00
2019-04-23T23:32:26.157Z,79.10
2019-04-23T23:37:28.072Z,81.30
2019-04-23T23:42:34.377Z,87.50
2019-04-23T23:47:38.085Z,87.10
2019-04-23T23:57:51.410Z,85.50
